createdAt,value
2022-12-27T00:00:52.934Z,14.25
2022-12-27T00:02:55.191Z,64.55
2022-12-27T00:04:57.396Z,45.95
2022-12-27T00:06:59.910Z,33.47
2022-12-27T00:09:02.843Z,42.00
2022-12-27T00:11:09.787Z,42.20
2022-12-27T00:13:11.796Z,33.25
2022-12-27T00:15:13.701Z,29.40
2022-12-27T00:17:15.911Z,36.38
2022-12-27T00:19:17.961Z,31.15
2022-12-27T00:21:21.316Z,21.33
2022-12-27T00:23:23.372Z,17.08
2022-12-27T00:25:25.644Z,16.67
2022-12-27T00:27:27.958Z,15.27
2022-12-27T00:29:30.258Z,12.05
2022-12-27T00:31:33.436Z,14.48
2022-12-27T00:33:37.373Z,12.98
2022-12-27T00:35:39.817Z,13.35
2022-12-27T00:37:42.894Z,15.90
2022-12-27T00:39:45.239Z,14.77
2022-12-27T00:41:47.500Z,16.73
2022-12-27T00:43:49.765Z,114.80
2022-12-27T00:45:51.836Z,113.78
2022-12-27T00:47:54.162Z,80.53
2022-12-27T00:49:56.130Z,53.63
2022-12-27T00:51:58.294Z,40.30
2022-12-27T00:54:00.696Z,22.00
2022-12-27T00:56:08.176Z,17.75
2022-12-27T00:58:10.664Z,14.02
2022-12-27T01:00:13.635Z,15.98
2022-12-27T01:02:15.887Z,16.80
2022-12-27T01:04:18.126Z,14.75
2022-12-27T01:06:23.268Z,13.60
2022-12-27T01:08:25.216Z,12.48
2022-12-27T01:10:27.460Z,13.13
2022-12-27T01:12:29.882Z,13.75
2022-12-27T01:14:31.894Z,12.32
2022-12-27T01:16:34.611Z,12.00
2022-12-27T01:18:36.707Z,11.98
2022-12-27T01:20:39.339Z,13.38
2022-12-27T01:22:41.279Z,14.65
2022-12-27T01:24:43.532Z,11.93
2022-12-27T01:26:45.399Z,12.57
2022-12-27T01:28:48.740Z,13.60
2022-12-27T01:30:50.833Z,15.23
2022-12-27T01:32:52.829Z,14.57
2022-12-27T01:34:54.873Z,16.40
2022-12-27T01:36:56.872Z,17.83
2022-12-27T01:39:00.053Z,18.77
2022-12-27T01:41:21.965Z,27.92
2022-12-27T01:43:38.071Z,31.98
2022-12-27T01:45:40.513Z,30.38
2022-12-27T01:48:04.488Z,35.08
2022-12-27T01:50:35.085Z,26.88
2022-12-27T01:52:43.315Z,18.38
2022-12-27T01:54:45.291Z,16.20
2022-12-27T01:56:47.432Z,14.85
2022-12-27T01:58:56.868Z,15.35
2022-12-27T02:00:59.894Z,11.02
2022-12-27T02:03:05.426Z,13.55
2022-12-27T02:05:09.896Z,13.63
2022-12-27T02:07:12.026Z,13.77
2022-12-27T02:09:27.329Z,13.00
2022-12-27T02:11:51.489Z,12.38
2022-12-27T02:13:57.357Z,13.52
2022-12-27T02:15:59.639Z,16.58
2022-12-27T02:18:02.060Z,14.25
2022-12-27T02:20:17.934Z,16.00
2022-12-27T02:22:55.518Z,13.98
2022-12-27T02:25:09.321Z,11.93
2022-12-27T02:27:28.822Z,13.48
2022-12-27T02:29:46.739Z,12.82
2022-12-27T02:31:57.822Z,13.77
2022-12-27T02:34:03.315Z,12.93
2022-12-27T02:36:10.496Z,12.45
2022-12-27T02:38:18.796Z,11.95
2022-12-27T02:40:42.221Z,11.77
2022-12-27T02:43:04.711Z,14.30
2022-12-27T02:45:37.782Z,12.23
2022-12-27T02:47:58.433Z,12.98
2022-12-27T02:50:19.070Z,11.70
2022-12-27T02:53:05.119Z,14.93
2022-12-27T02:55:13.174Z,11.05
2022-12-27T02:57:34.885Z,15.82
2022-12-27T03:00:20.562Z,15.65
2022-12-27T03:02:55.054Z,24.30
2022-12-27T03:05:19.638Z,78.20
2022-12-27T03:07:33.926Z,91.00
2022-12-27T03:09:57.582Z,258.77
2022-12-27T03:12:18.628Z,229.15
2022-12-27T03:14:59.331Z,229.98
2022-12-27T03:17:11.810Z,252.35
2022-12-27T03:20:01.112Z,142.18
2022-12-27T03:22:23.089Z,140.15
2022-12-27T03:24:51.492Z,105.55
2022-12-27T03:26:57.224Z,143.70
2022-12-27T03:29:19.812Z,97.45
2022-12-27T03:32:24.611Z,103.63
2022-12-27T03:34:41.370Z,70.68
2022-12-27T03:37:02.196Z,79.82
2022-12-27T03:39:16.026Z,117.05
2022-12-27T03:41:46.562Z,119.38
2022-12-27T03:43:48.725Z,142.80
2022-12-27T03:46:12.526Z,120.93
2022-12-27T03:48:21.756Z,108.38
2022-12-27T03:50:39.260Z,72.30
2022-12-27T03:52:58.037Z,72.85
2022-12-27T03:55:01.678Z,56.05
2022-12-27T03:57:25.403Z,50.30
2022-12-27T03:59:29.600Z,41.50
2022-12-27T04:01:31.618Z,34.63
2022-12-27T04:03:33.916Z,34.60
2022-12-27T04:05:36.170Z,48.63
2022-12-27T04:07:38.536Z,41.15
2022-12-27T04:09:59.197Z,42.70
2022-12-27T04:12:19.903Z,34.00
2022-12-27T04:14:40.224Z,36.45
2022-12-27T04:17:00.767Z,24.92
2022-12-27T04:19:21.414Z,23.83
2022-12-27T04:21:42.100Z,25.42
2022-12-27T04:24:02.911Z,22.75
2022-12-27T04:26:23.825Z,19.50
2022-12-27T04:28:44.507Z,24.17
2022-12-27T04:31:05.378Z,21.75
2022-12-27T04:33:26.033Z,22.55
2022-12-27T04:35:28.148Z,22.65
2022-12-27T04:37:30.261Z,26.00
2022-12-27T04:39:32.614Z,25.00
2022-12-27T04:41:55.906Z,31.50
2022-12-27T04:44:17.657Z,26.95
2022-12-27T04:46:42.810Z,27.77
2022-12-27T04:49:03.255Z,33.10
2022-12-27T04:51:23.946Z,33.10
2022-12-27T04:53:44.443Z,29.63
2022-12-27T04:55:46.416Z,32.72
2022-12-27T04:57:48.882Z,27.55
2022-12-27T05:00:11.167Z,27.00
2022-12-27T05:02:13.332Z,28.77
2022-12-27T05:04:15.628Z,30.77
2022-12-27T05:06:18.284Z,30.53
2022-12-27T05:08:39.905Z,32.97
2022-12-27T05:11:00.614Z,34.22
2022-12-27T05:13:21.554Z,40.00
2022-12-27T05:15:23.540Z,43.58
2022-12-27T05:17:25.394Z,37.13
2022-12-27T05:19:30.423Z,37.85
2022-12-27T05:21:37.024Z,31.88
2022-12-27T05:24:03.400Z,30.52
2022-12-27T05:26:07.312Z,29.52
2022-12-27T05:28:11.539Z,30.40
2022-12-27T05:30:13.641Z,32.88
2022-12-27T05:32:15.788Z,30.58
2022-12-27T05:34:18.070Z,35.08
2022-12-27T05:36:20.849Z,36.28
2022-12-27T05:38:22.928Z,44.28
2022-12-27T05:40:25.430Z,45.92
2022-12-27T05:42:27.483Z,45.03
2022-12-27T05:44:29.666Z,38.95
2022-12-27T05:46:32.216Z,37.63
2022-12-27T05:48:34.990Z,36.97
2022-12-27T05:50:36.998Z,38.05
2022-12-27T05:52:45.392Z,37.40
2022-12-27T05:54:47.413Z,39.20
2022-12-27T05:56:49.438Z,41.22
2022-12-27T05:58:54.026Z,47.35
2022-12-27T06:00:56.340Z,48.20
2022-12-27T06:02:58.444Z,43.05
2022-12-27T06:05:03.185Z,39.67
2022-12-27T06:07:05.500Z,36.42
2022-12-27T06:09:07.474Z,34.17
2022-12-27T06:11:12.391Z,31.27
2022-12-27T06:13:14.530Z,29.70
2022-12-27T06:15:16.571Z,28.85
2022-12-27T06:17:18.498Z,26.15
2022-12-27T06:19:20.481Z,26.80
2022-12-27T06:21:23.351Z,30.52
2022-12-27T06:23:25.444Z,26.33
2022-12-27T06:25:27.483Z,31.97
2022-12-27T06:27:29.529Z,30.92
2022-12-27T06:29:31.802Z,28.67
2022-12-27T06:31:33.802Z,28.15
2022-12-27T06:33:35.874Z,29.27
2022-12-27T06:35:37.760Z,28.85
2022-12-27T06:37:39.837Z,29.30
2022-12-27T06:39:42.149Z,26.60
2022-12-27T06:41:44.239Z,27.58
2022-12-27T06:43:47.512Z,28.27
2022-12-27T06:45:56.954Z,30.95
2022-12-27T06:47:58.973Z,32.13
2022-12-27T06:50:00.870Z,30.10
2022-12-27T06:52:02.948Z,33.60
2022-12-27T06:54:06.282Z,28.23
2022-12-27T06:56:11.896Z,30.20
2022-12-27T06:58:15.162Z,26.87
2022-12-27T07:00:18.760Z,28.23
2022-12-27T07:02:20.973Z,28.13
2022-12-27T07:04:23.155Z,30.83
2022-12-27T07:06:27.809Z,28.80
2022-12-27T07:08:30.122Z,27.67
2022-12-27T07:10:32.591Z,28.92
2022-12-27T07:12:36.819Z,35.90
2022-12-27T07:14:39.109Z,33.80
2022-12-27T07:16:41.178Z,31.35
2022-12-27T07:18:44.035Z,32.90
2022-12-27T07:20:46.089Z,31.97
2022-12-27T07:22:48.164Z,32.53
2022-12-27T07:24:50.507Z,35.53
2022-12-27T07:26:53.055Z,31.67
2022-12-27T07:29:00.239Z,33.00
2022-12-27T07:31:14.074Z,32.60
2022-12-27T07:33:16.177Z,33.47
2022-12-27T07:35:18.069Z,34.50
2022-12-27T07:37:20.940Z,31.30
2022-12-27T07:39:23.466Z,30.25
2022-12-27T07:41:28.761Z,34.85
2022-12-27T07:43:33.452Z,25.97
2022-12-27T07:45:35.834Z,25.92
2022-12-27T07:47:37.894Z,28.83
2022-12-27T07:49:40.074Z,36.78
2022-12-27T07:51:42.436Z,27.25
2022-12-27T07:53:44.957Z,21.40
2022-12-27T07:55:47.289Z,20.90
2022-12-27T07:57:49.271Z,18.75
2022-12-27T07:59:51.250Z,16.05
2022-12-27T08:02:05.723Z,22.85
2022-12-27T08:04:07.707Z,41.55
2022-12-27T08:06:20.100Z,51.95
2022-12-27T08:08:27.586Z,41.92
2022-12-27T08:10:29.723Z,66.78
2022-12-27T08:12:31.829Z,60.47
2022-12-27T08:14:33.814Z,87.43
2022-12-27T08:16:36.004Z,57.72
2022-12-27T08:18:38.093Z,59.42
2022-12-27T08:20:40.140Z,75.32
2022-12-27T08:22:42.255Z,72.55
2022-12-27T08:24:44.766Z,70.70
2022-12-27T08:26:46.946Z,63.63
2022-12-27T08:28:49.135Z,47.95
2022-12-27T08:30:51.205Z,51.63
2022-12-27T08:32:53.727Z,45.78
2022-12-27T08:35:06.872Z,47.10
2022-12-27T08:37:18.039Z,41.35
2022-12-27T08:39:20.436Z,34.88
2022-12-27T08:41:23.163Z,35.63
2022-12-27T08:43:25.109Z,32.03
2022-12-27T08:45:27.180Z,33.45
2022-12-27T08:47:29.065Z,31.33
2022-12-27T08:49:31.276Z,31.02
2022-12-27T08:51:40.818Z,30.83
2022-12-27T08:53:43.892Z,34.88
2022-12-27T08:55:45.939Z,30.45
2022-12-27T08:57:48.011Z,22.92
2022-12-27T08:59:49.972Z,26.33
2022-12-27T09:01:52.114Z,24.38
2022-12-27T09:03:54.214Z,20.88
2022-12-27T09:05:56.313Z,20.60
2022-12-27T09:07:58.762Z,18.52
2022-12-27T09:10:00.885Z,19.40
2022-12-27T09:12:08.648Z,20.67
2022-12-27T09:14:11.816Z,19.30
2022-12-27T09:16:27.621Z,17.92
2022-12-27T09:18:29.686Z,17.48
2022-12-27T09:20:31.725Z,21.92
2022-12-27T09:22:34.275Z,14.70
2022-12-27T09:24:36.179Z,15.68
2022-12-27T09:26:38.373Z,14.60
2022-12-27T09:28:41.455Z,14.63
2022-12-27T09:30:46.449Z,13.38
2022-12-27T09:32:48.594Z,19.00
2022-12-27T09:34:50.585Z,15.55
2022-12-27T09:36:52.787Z,13.13
2022-12-27T09:38:57.055Z,14.55
2022-12-27T09:41:01.802Z,12.82
2022-12-27T09:43:20.779Z,14.68
2022-12-27T09:45:38.366Z,12.55
2022-12-27T09:47:58.877Z,12.02
2022-12-27T09:50:10.702Z,11.40
2022-12-27T09:52:19.267Z,10.68
2022-12-27T09:54:33.706Z,11.27
2022-12-27T09:57:02.063Z,12.05
2022-12-27T09:59:37.132Z,11.13
2022-12-27T10:01:40.744Z,11.00
2022-12-27T10:03:44.115Z,11.40
2022-12-27T10:05:56.239Z,12.15
2022-12-27T10:08:17.689Z,11.77
2022-12-27T10:11:39.185Z,11.43
2022-12-27T10:13:53.822Z,8.93
2022-12-27T10:16:17.408Z,8.60
2022-12-27T10:19:02.180Z,9.30
2022-12-27T10:21:17.968Z,6.95
2022-12-27T10:23:28.594Z,6.38
2022-12-27T10:25:30.854Z,6.70
2022-12-27T10:27:32.880Z,7.45
2022-12-27T10:29:35.286Z,7.68
2022-12-27T10:31:43.397Z,5.82
2022-12-27T10:33:47.821Z,7.18
2022-12-27T10:35:50.071Z,8.27
2022-12-27T10:37:54.225Z,8.20
2022-12-27T10:41:11.351Z,10.65
2022-12-27T10:43:26.677Z,6.90
2022-12-27T10:45:39.412Z,7.03
2022-12-27T10:47:41.455Z,5.20
2022-12-27T10:50:01.195Z,6.35
2022-12-27T10:52:09.140Z,4.43
2022-12-27T10:54:19.704Z,5.57
2022-12-27T10:56:50.730Z,4.47
2022-12-27T10:58:58.943Z,3.35
2022-12-27T11:01:01.249Z,4.40
2022-12-27T11:03:03.687Z,3.58
2022-12-27T11:05:19.696Z,4.93
2022-12-27T11:07:21.716Z,4.95
2022-12-27T11:09:38.115Z,4.65
2022-12-27T11:11:40.251Z,5.30
2022-12-27T11:13:43.295Z,6.57
2022-12-27T11:15:58.723Z,5.60
2022-12-27T11:18:17.266Z,7.93
2022-12-27T11:20:25.423Z,12.77
2022-12-27T11:22:27.762Z,11.15
2022-12-27T11:24:30.860Z,10.05
2022-12-27T11:26:42.018Z,10.43
2022-12-27T11:28:55.039Z,9.13
2022-12-27T11:31:13.127Z,8.65
2022-12-27T11:33:27.711Z,10.13
2022-12-27T11:35:30.217Z,9.05
2022-12-27T11:37:32.615Z,9.43
2022-12-27T11:39:42.087Z,9.40
2022-12-27T11:41:50.188Z,7.45
2022-12-27T11:44:04.008Z,8.32
2022-12-27T11:46:19.135Z,8.52
2022-12-27T11:48:33.362Z,10.05
2022-12-27T11:50:55.020Z,7.55
2022-12-27T11:53:14.954Z,8.40
2022-12-27T11:55:19.757Z,7.20
2022-12-27T11:57:30.535Z,8.02
2022-12-27T11:59:54.576Z,8.68
2022-12-27T12:02:05.544Z,13.02
2022-12-27T12:05:01.016Z,7.93
2022-12-27T12:07:24.918Z,5.60
2022-12-27T12:10:00.950Z,4.97
2022-12-27T12:12:34.409Z,4.55
2022-12-27T12:14:48.533Z,3.75
2022-12-27T12:17:33.965Z,4.78
2022-12-27T12:19:52.096Z,4.70
2022-12-27T12:22:18.865Z,5.25
2022-12-27T12:24:42.442Z,8.43
2022-12-27T12:27:03.429Z,12.23
2022-12-27T12:29:18.197Z,10.60
2022-12-27T12:31:32.702Z,7.63
2022-12-27T12:34:01.476Z,5.35
2022-12-27T12:36:22.027Z,5.13
2022-12-27T12:38:46.130Z,6.20
2022-12-27T12:41:28.129Z,5.47
2022-12-27T12:43:39.144Z,10.02
2022-12-27T12:46:26.040Z,6.53
2022-12-27T12:48:47.867Z,4.95
2022-12-27T12:51:01.739Z,6.10
2022-12-27T12:53:25.581Z,5.18
2022-12-27T12:55:39.998Z,6.70
2022-12-27T12:58:03.405Z,5.38
2022-12-27T13:00:37.559Z,7.35
2022-12-27T13:03:16.197Z,5.45
2022-12-27T13:05:38.825Z,5.35
2022-12-27T13:07:59.697Z,4.90
2022-12-27T13:10:26.779Z,4.57
2022-12-27T13:12:53.337Z,4.32
2022-12-27T13:15:13.627Z,6.40
2022-12-27T13:17:28.897Z,5.93
2022-12-27T13:20:06.825Z,8.35
2022-12-27T13:22:33.494Z,8.07
2022-12-27T13:25:06.308Z,6.97
2022-12-27T13:27:26.017Z,6.38
2022-12-27T13:30:01.634Z,5.88
2022-12-27T13:32:48.151Z,6.85
2022-12-27T13:35:02.130Z,4.88
2022-12-27T13:37:48.519Z,5.47
2022-12-27T13:40:18.316Z,5.30
2022-12-27T13:42:55.267Z,6.18
2022-12-27T13:45:32.579Z,6.30
2022-12-27T13:47:46.375Z,7.10
2022-12-27T13:49:48.286Z,6.43
2022-12-27T13:51:52.265Z,6.60
2022-12-27T13:54:22.661Z,3.88
2022-12-27T13:59:18.716Z,3.85
2022-12-27T14:01:29.552Z,3.20
2022-12-27T14:03:59.385Z,3.45
2022-12-27T14:06:19.867Z,4.20
2022-12-27T14:08:56.350Z,6.78
2022-12-27T14:11:01.130Z,5.78
2022-12-27T14:13:11.483Z,23.55
2022-12-27T14:15:19.301Z,101.95
2022-12-27T14:17:36.042Z,96.07
2022-12-27T14:20:06.382Z,90.53
2022-12-27T14:22:26.151Z,57.05
2022-12-27T14:24:30.788Z,33.70
2022-12-27T14:26:54.484Z,21.50
2022-12-27T14:29:29.154Z,17.38
2022-12-27T14:32:01.485Z,14.40
2022-12-27T14:34:34.553Z,39.67
2022-12-27T14:36:55.397Z,34.97
2022-12-27T14:39:20.440Z,44.63
2022-12-27T14:41:40.706Z,33.15
2022-12-27T14:44:19.482Z,26.10
2022-12-27T14:46:52.287Z,26.02
2022-12-27T15:00:26.832Z,18.73
2022-12-27T15:02:53.764Z,29.97
2022-12-27T15:05:47.197Z,39.38
2022-12-27T15:08:22.808Z,31.87
2022-12-27T15:10:50.808Z,23.25
2022-12-27T15:13:03.777Z,18.83
2022-12-27T15:15:20.912Z,19.42
2022-12-27T15:17:53.448Z,16.80
2022-12-27T15:20:17.065Z,22.45
2022-12-27T15:22:49.755Z,59.05
2022-12-27T15:25:10.163Z,44.95
2022-12-27T15:27:27.965Z,49.83
2022-12-27T15:29:38.743Z,49.53
2022-12-27T15:31:46.533Z,43.08
2022-12-27T15:33:57.561Z,36.00
2022-12-27T15:36:16.349Z,32.23
2022-12-27T15:38:54.396Z,29.52
2022-12-27T15:41:09.172Z,27.37
2022-12-27T15:43:57.969Z,32.10
2022-12-27T15:46:35.843Z,49.75
2022-12-27T15:48:38.487Z,39.90
2022-12-27T15:50:52.184Z,40.40
2022-12-27T15:53:03.233Z,40.67
2022-12-27T15:55:20.291Z,31.05
2022-12-27T15:57:44.124Z,24.87
2022-12-27T15:59:48.372Z,23.47
2022-12-27T16:02:27.669Z,25.67
2022-12-27T16:04:48.154Z,27.47
2022-12-27T16:06:51.803Z,35.10
2022-12-27T16:09:19.857Z,36.90
2022-12-27T16:11:58.354Z,30.33
2022-12-27T16:14:25.996Z,39.00
2022-12-27T16:16:28.700Z,35.50
2022-12-27T16:18:36.768Z,32.30
2022-12-27T16:20:42.380Z,31.33
2022-12-27T16:22:56.846Z,30.37
2022-12-27T16:25:00.458Z,29.80
2022-12-27T16:27:05.659Z,44.40
2022-12-27T16:29:15.623Z,43.03
2022-12-27T16:31:23.679Z,34.03
2022-12-27T16:33:33.717Z,30.87
2022-12-27T16:35:38.989Z,27.23
2022-12-27T16:37:52.933Z,26.63
2022-12-27T16:40:23.017Z,31.07
2022-12-27T16:42:41.035Z,32.93
2022-12-27T16:44:54.754Z,31.57
2022-12-27T16:47:00.077Z,28.93
2022-12-27T16:49:47.354Z,47.63
2022-12-27T16:52:04.659Z,50.10
2022-12-27T16:54:27.023Z,43.70
2022-12-27T16:56:36.597Z,28.03
2022-12-27T16:58:39.492Z,24.10
2022-12-27T17:00:47.635Z,26.80
2022-12-27T17:02:50.216Z,26.87
2022-12-27T17:04:59.386Z,28.20
2022-12-27T17:07:01.576Z,28.67
2022-12-27T17:09:09.533Z,31.80
2022-12-27T17:11:32.029Z,25.53
2022-12-27T17:13:46.699Z,46.17
2022-12-27T17:16:05.613Z,42.43
2022-12-27T17:18:24.900Z,52.00
2022-12-27T17:20:27.429Z,51.97
2022-12-27T17:22:35.084Z,46.37
2022-12-27T17:24:38.009Z,53.00
2022-12-27T17:26:53.210Z,48.33
2022-12-27T17:29:29.819Z,30.63
2022-12-27T17:31:58.755Z,23.47
2022-12-27T17:34:37.628Z,12.93
2022-12-27T17:36:59.874Z,10.07
2022-12-27T17:39:20.136Z,15.93
2022-12-27T17:42:18.291Z,42.07
2022-12-27T17:44:42.049Z,29.10
2022-12-27T17:47:25.798Z,26.37
2022-12-27T17:49:31.101Z,36.60
2022-12-27T17:51:36.054Z,67.60
2022-12-27T17:54:05.072Z,74.17
2022-12-27T17:56:28.493Z,64.50
2022-12-27T17:58:35.011Z,33.67
2022-12-27T18:00:54.071Z,23.17
2022-12-27T18:03:00.016Z,14.30
2022-12-27T18:05:09.161Z,12.67
2022-12-27T18:07:14.277Z,11.77
2022-12-27T18:09:37.860Z,16.50
2022-12-27T18:11:41.781Z,15.30
2022-12-27T18:13:57.055Z,14.27
2022-12-27T18:16:01.181Z,17.73
2022-12-27T18:18:06.350Z,20.17
2022-12-27T18:20:32.596Z,22.03
2022-12-27T18:22:34.764Z,14.73
2022-12-27T18:24:40.380Z,29.77
2022-12-27T18:26:42.522Z,28.10
2022-12-27T18:28:45.068Z,20.03
2022-12-27T18:30:56.223Z,12.13
2022-12-27T18:33:00.259Z,9.23
2022-12-27T18:35:03.590Z,9.23
2022-12-27T18:37:12.906Z,7.60
2022-12-27T18:39:52.610Z,8.27
2022-12-27T18:41:56.327Z,12.73
2022-12-27T18:44:02.117Z,12.60
2022-12-27T18:46:08.294Z,10.70
2022-12-27T18:48:14.829Z,24.67
2022-12-27T18:50:20.918Z,21.00
2022-12-27T18:52:30.328Z,17.47
2022-12-27T18:54:36.032Z,17.83
2022-12-27T18:56:38.439Z,13.90
2022-12-27T18:58:41.844Z,31.03
2022-12-27T19:00:54.180Z,23.40
2022-12-27T19:03:18.017Z,20.87
2022-12-27T19:05:21.905Z,22.93
2022-12-27T19:07:24.721Z,66.83
2022-12-27T19:09:34.054Z,61.20
2022-12-27T19:11:36.973Z,69.90
2022-12-27T19:13:47.875Z,65.20
2022-12-27T19:15:51.077Z,32.60
2022-12-27T19:17:59.451Z,25.87
2022-12-27T19:20:04.764Z,20.40
2022-12-27T19:22:47.145Z,16.10
2022-12-27T19:24:49.598Z,12.40
2022-12-27T19:27:16.774Z,8.20
2022-12-27T19:29:21.646Z,7.10
2022-12-27T19:31:23.768Z,5.90
2022-12-27T19:33:31.412Z,7.80
2022-12-27T19:35:35.724Z,5.30
2022-12-27T19:37:38.069Z,10.13
2022-12-27T19:39:41.429Z,8.63
2022-12-27T19:41:43.444Z,11.23
2022-12-27T19:43:47.428Z,15.57
2022-12-27T19:45:49.573Z,19.50
2022-12-27T19:47:52.533Z,35.60
2022-12-27T19:49:54.793Z,35.40
2022-12-27T19:51:58.350Z,33.27
2022-12-27T19:54:00.646Z,41.13
2022-12-27T19:56:03.678Z,38.30
2022-12-27T19:58:22.467Z,42.23
2022-12-27T20:00:24.909Z,38.37
2022-12-27T20:02:27.712Z,40.33
2022-12-27T20:04:30.972Z,33.57
2022-12-27T20:06:34.088Z,37.30
2022-12-27T20:08:42.949Z,34.53
2022-12-27T20:10:45.394Z,34.83
2022-12-27T20:12:47.401Z,34.90
2022-12-27T20:14:49.610Z,37.30
2022-12-27T20:16:51.734Z,33.03
2022-12-27T20:18:53.856Z,37.60
2022-12-27T20:20:55.986Z,38.33
2022-12-27T20:22:58.540Z,33.47
2022-12-27T20:25:00.806Z,35.07
2022-12-27T20:27:03.258Z,32.07
2022-12-27T20:29:05.679Z,31.87
2022-12-27T20:31:09.595Z,30.30
2022-12-27T20:33:11.737Z,29.07
2022-12-27T20:35:13.830Z,29.07
2022-12-27T20:37:18.562Z,24.67
2022-12-27T20:39:24.865Z,25.70
2022-12-27T20:41:27.904Z,21.80
2022-12-27T20:43:30.104Z,22.80
2022-12-27T20:45:32.128Z,16.30
2022-12-27T20:47:34.289Z,15.27
2022-12-27T20:49:36.404Z,11.83
2022-12-27T20:51:38.890Z,10.73
2022-12-27T20:53:41.130Z,8.23
2022-12-27T20:55:43.297Z,18.47
2022-12-27T20:57:45.321Z,12.67
2022-12-27T20:59:48.213Z,11.20
2022-12-27T21:01:56.497Z,10.37
2022-12-27T21:03:59.339Z,11.47
2022-12-27T21:06:16.433Z,11.63
2022-12-27T21:08:18.966Z,18.23
2022-12-27T21:10:21.031Z,18.47
2022-12-27T21:12:23.332Z,14.83
2022-12-27T21:14:25.415Z,21.50
2022-12-27T21:16:30.687Z,23.33
2022-12-27T21:18:33.960Z,25.30
2022-12-27T21:20:38.958Z,30.27
2022-12-27T21:22:41.359Z,24.37
2022-12-27T21:24:45.080Z,29.13
2022-12-27T21:26:51.964Z,27.93
2022-12-27T21:28:58.597Z,29.27
2022-12-27T21:31:00.924Z,29.00
2022-12-27T21:33:03.017Z,33.63
2022-12-27T21:35:05.469Z,30.67
2022-12-27T21:37:12.981Z,35.30
2022-12-27T21:39:16.138Z,25.00
2022-12-27T21:41:26.894Z,23.93
2022-12-27T21:43:30.250Z,15.47
2022-12-27T21:45:32.574Z,15.10
2022-12-27T21:47:34.637Z,16.77
2022-12-27T21:49:40.623Z,16.53
2022-12-27T21:51:44.076Z,20.57
2022-12-27T21:53:46.984Z,27.17
2022-12-27T21:55:58.033Z,18.67
2022-12-27T21:58:00.207Z,15.87
2022-12-27T22:00:02.282Z,14.17
2022-12-27T22:02:06.685Z,17.03
2022-12-27T22:04:09.395Z,35.60
2022-12-27T22:06:17.645Z,62.07
2022-12-27T22:08:19.931Z,59.50
2022-12-27T22:10:23.418Z,49.63
2022-12-27T22:12:25.628Z,48.40
2022-12-27T22:14:30.597Z,65.97
2022-12-27T22:16:38.192Z,66.73
2022-12-27T22:18:45.178Z,64.20
2022-12-27T22:20:47.327Z,70.67
2022-12-27T22:22:49.736Z,105.83
2022-12-27T22:24:51.676Z,149.57
2022-12-27T22:26:53.848Z,127.80
2022-12-27T22:28:56.321Z,106.37
2022-12-27T22:30:59.543Z,94.33
2022-12-27T22:33:01.725Z,90.70
2022-12-27T22:35:04.125Z,73.80
2022-12-27T22:37:06.330Z,138.70
2022-12-27T22:39:08.785Z,132.67
2022-12-27T22:41:13.822Z,92.23
2022-12-27T22:43:15.888Z,62.47
2022-12-27T22:45:18.065Z,50.93
2022-12-27T22:47:28.351Z,32.97
2022-12-27T22:49:30.767Z,32.73
2022-12-27T22:51:35.015Z,27.53
2022-12-27T22:53:37.191Z,25.97
2022-12-27T22:55:42.677Z,27.87
2022-12-27T22:57:44.716Z,24.33
2022-12-27T22:59:46.827Z,22.27
2022-12-27T23:01:48.995Z,26.80
2022-12-27T23:03:54.381Z,28.57
2022-12-27T23:06:02.797Z,26.93
2022-12-27T23:08:07.891Z,28.37
2022-12-27T23:10:10.497Z,29.03
2022-12-27T23:12:13.518Z,32.40
2022-12-27T23:14:16.712Z,27.90
2022-12-27T23:16:18.998Z,28.53
2022-12-27T23:18:21.251Z,27.73
2022-12-27T23:20:23.274Z,27.80
2022-12-27T23:22:25.290Z,31.20
2022-12-27T23:24:27.303Z,31.03
2022-12-27T23:26:29.943Z,31.30
2022-12-27T23:28:34.421Z,44.90
2022-12-27T23:30:36.509Z,38.27
2022-12-27T23:32:38.483Z,43.53
2022-12-27T23:34:40.727Z,40.13
2022-12-27T23:36:43.269Z,39.67
2022-12-27T23:38:45.557Z,34.37
2022-12-27T23:40:57.396Z,36.77
2022-12-27T23:43:18.734Z,37.87
2022-12-27T23:45:22.306Z,32.27
2022-12-27T23:47:24.273Z,31.70
2022-12-27T23:49:26.393Z,34.97
2022-12-27T23:51:30.235Z,32.50
2022-12-27T23:53:32.594Z,29.30
2022-12-27T23:55:34.799Z,30.53
2022-12-27T23:57:36.818Z,36.17
2022-12-27T23:59:42.117Z,31.87
